Time;durP1;ratioP1;P1;durP2;ratioP2;P2;SDS_P1;SDS_P2;PMS_P1;PMS_P2;Temp;Humidity;BMP_temperature;BMP_pressure;BME280_temperature;BME280_humidity;BME280_pressure;Samples;Min_cycle;Max_cycle;Signal;HPM_P1;HPM_P2
2021/05/24 00:01:03;;;;;;;11.50;10.30;;;;;;;;;;4989840;28;20462;-65
2021/05/24 00:03:30;;;;;;;10.03;9.23;;;;;;;;;;4987153;28;20861;-67
2021/05/24 00:05:57;;;;;;;10.23;9.47;;;;;;;;;;5025995;23;20481;-65
2021/05/24 00:08:23;;;;;;;10.97;10.20;;;;;;;;;;5015576;28;20446;-64
2021/05/24 00:10:50;;;;;;;11.30;10.47;;;;;;;;;;4999793;28;20498;-63
2021/05/24 00:13:19;;;;;;;10.67;9.87;;;;;;;;;;5001217;28;20493;-64
2021/05/24 00:15:46;;;;;;;10.90;10.00;;;;;;;;;;5001708;28;20780;-64
2021/05/24 00:18:13;;;;;;;11.53;10.73;;;;;;;;;;4972608;28;20456;-64
2021/05/24 00:20:41;;;;;;;11.73;10.73;;;;;;;;;;4978881;28;20513;-64
2021/05/24 00:23:08;;;;;;;11.07;10.27;;;;;;;;;;4990490;28;20936;-64
2021/05/24 00:25:35;;;;;;;11.53;10.73;;;;;;;;;;4989961;28;20497;-64
2021/05/24 00:28:02;;;;;;;10.87;9.97;;;;;;;;;;4990398;28;20477;-64
2021/05/24 00:30:32;;;;;;;11.93;11.03;;;;;;;;;;4991580;28;20458;-64
2021/05/24 00:32:59;;;;;;;11.80;10.80;;;;;;;;;;4989493;28;20564;-64
2021/05/24 00:35:26;;;;;;;11.50;10.60;;;;;;;;;;4991159;28;20520;-64
2021/05/24 00:37:52;;;;;;;11.30;10.50;;;;;;;;;;4991134;28;20492;-64
2021/05/24 00:40:19;;;;;;;12.60;11.70;;;;;;;;;;4991732;28;20534;-65
2021/05/24 00:42:46;;;;;;;12.37;11.50;;;;;;;;;;4990914;28;20511;-64
2021/05/24 00:45:13;;;;;;;11.97;10.87;;;;;;;;;;4972203;28;20459;-66
2021/05/24 00:47:40;;;;;;;10.93;10.23;;;;;;;;;;4992994;28;20458;-65
2021/05/24 00:50:08;;;;;;;12.27;11.27;;;;;;;;;;4994118;28;20467;-64
2021/05/24 00:52:34;;;;;;;11.83;11.03;;;;;;;;;;4994887;28;20577;-64
2021/05/24 00:55:01;;;;;;;11.40;10.60;;;;;;;;;;4992324;28;21205;-65
2021/05/24 00:57:28;;;;;;;11.50;10.60;;;;;;;;;;4994879;28;20937;-65
2021/05/24 00:59:55;;;;;;;11.83;10.60;;;;;;;;;;4993756;28;20973;-64
2021/05/24 01:02:22;;;;;;;12.00;11.20;;;;;;;;;;4993315;28;20457;-65
2021/05/24 01:04:49;;;;;;;11.67;10.87;;;;;;;;;;4990266;28;20483;-65
2021/05/24 01:07:16;;;;;;;11.90;10.80;;;;;;;;;;4994937;28;20465;-65
2021/05/24 01:09:43;;;;;;;11.63;10.83;;;;;;;;;;4993643;28;20470;-65
2021/05/24 01:12:10;;;;;;;13.13;11.97;;;;;;;;;;4995017;28;20458;-65
2021/05/24 01:14:37;;;;;;;12.10;11.10;;;;;;;;;;4992210;28;20494;-65
2021/05/24 01:17:03;;;;;;;11.87;10.83;;;;;;;;;;4994701;28;20480;-65
2021/05/24 01:19:30;;;;;;;11.50;10.47;;;;;;;;;;4993996;28;20477;-66
2021/05/24 01:21:58;;;;;;;11.53;10.63;;;;;;;;;;4992047;28;20501;-65
2021/05/24 01:24:24;;;;;;;12.17;11.17;;;;;;;;;;4994360;28;20446;-65
2021/05/24 01:26:51;;;;;;;12.20;11.30;;;;;;;;;;4994642;28;20478;-65
2021/05/24 01:29:19;;;;;;;11.93;10.90;;;;;;;;;;4991447;28;20528;-64
2021/05/24 01:31:46;;;;;;;11.50;10.80;;;;;;;;;;4994445;28;20517;-64
2021/05/24 01:34:13;;;;;;;11.37;10.47;;;;;;;;;;4994584;28;20593;-65
2021/05/24 01:36:39;;;;;;;11.20;10.40;;;;;;;;;;4992172;28;20901;-64
2021/05/24 01:39:08;;;;;;;11.23;10.40;;;;;;;;;;4993881;28;20541;-65
2021/05/24 01:41:35;;;;;;;11.10;10.40;;;;;;;;;;4993910;28;20847;-65
2021/05/24 01:44:01;;;;;;;11.87;10.83;;;;;;;;;;4993728;28;20466;-65
2021/05/24 01:46:28;;;;;;;10.93;10.13;;;;;;;;;;4991592;28;20490;-64
2021/05/24 01:48:55;;;;;;;9.63;8.93;;;;;;;;;;4994526;28;20946;-66
2021/05/24 01:51:21;;;;;;;10.97;9.97;;;;;;;;;;4992014;28;20450;-64
2021/05/24 01:53:48;;;;;;;11.63;10.83;;;;;;;;;;4994061;28;20902;-64
2021/05/24 01:56:15;;;;;;;10.90;9.83;;;;;;;;;;4992672;28;20482;-64
2021/05/24 01:58:42;;;;;;;10.50;9.80;;;;;;;;;;4992545;28;20474;-65
2021/05/24 02:01:10;;;;;;;10.07;9.37;;;;;;;;;;4992331;28;20961;-64
2021/05/24 02:03:37;;;;;;;10.40;9.70;;;;;;;;;;4994076;28;20504;-66
2021/05/24 02:06:05;;;;;;;9.90;9.10;;;;;;;;;;4991367;28;20552;-65
2021/05/24 02:08:33;;;;;;;10.13;9.30;;;;;;;;;;4993923;28;20466;-65
2021/05/24 02:11:01;;;;;;;10.47;9.67;;;;;;;;;;4993100;28;20476;-66
2021/05/24 02:13:29;;;;;;;10.00;9.30;;;;;;;;;;4993771;28;20896;-65
2021/05/24 02:15:56;;;;;;;9.40;8.80;;;;;;;;;;4992654;28;20487;-65
2021/05/24 02:18:23;;;;;;;9.70;9.00;;;;;;;;;;4993485;28;20970;-64
2021/05/24 02:20:49;;;;;;;10.10;9.30;;;;;;;;;;4990308;28;20482;-65
2021/05/24 02:23:17;;;;;;;10.73;9.73;;;;;;;;;;4993346;28;21029;-64
2021/05/24 02:25:43;;;;;;;9.17;8.57;;;;;;;;;;4991501;28;20490;-64
2021/05/24 02:28:10;;;;;;;9.20;8.50;;;;;;;;;;4992714;28;20528;-63
2021/05/24 02:30:37;;;;;;;9.90;9.20;;;;;;;;;;4992463;28;21042;-64
2021/05/24 02:33:05;;;;;;;9.50;8.50;;;;;;;;;;4993617;28;20537;-64
2021/05/24 02:35:31;;;;;;;9.30;8.80;;;;;;;;;;4990539;28;20494;-65
2021/05/24 02:37:58;;;;;;;9.50;8.87;;;;;;;;;;4992264;28;20473;-64
2021/05/24 02:40:27;;;;;;;8.90;8.30;;;;;;;;;;4993482;28;20992;-64
2021/05/24 02:42:54;;;;;;;8.50;7.93;;;;;;;;;;4992422;28;20467;-64
2021/05/24 02:45:21;;;;;;;8.07;7.40;;;;;;;;;;4992149;28;20518;-64
2021/05/24 02:47:49;;;;;;;10.43;8.00;;;;;;;;;;4991629;28;20462;-63
2021/05/24 02:50:18;;;;;;;8.80;8.10;;;;;;;;;;4993000;28;20464;-64
2021/05/24 02:52:44;;;;;;;8.27;7.57;;;;;;;;;;4992194;28;20521;-65
2021/05/24 02:55:11;;;;;;;8.63;8.13;;;;;;;;;;4993257;28;20501;-64
2021/05/24 02:57:38;;;;;;;8.27;7.70;;;;;;;;;;4990516;28;21008;-65
2021/05/24 03:00:06;;;;;;;8.40;7.80;;;;;;;;;;4991397;28;20549;-66
2021/05/24 03:02:32;;;;;;;8.17;7.57;;;;;;;;;;4992110;28;20459;-66
2021/05/24 03:05:00;;;;;;;9.20;8.17;;;;;;;;;;4991785;28;20490;-65
2021/05/24 03:07:26;;;;;;;8.50;7.90;;;;;;;;;;4990436;28;20481;-66
2021/05/24 03:09:54;;;;;;;8.87;7.97;;;;;;;;;;4993251;28;20451;-64
2021/05/24 03:12:20;;;;;;;9.03;8.27;;;;;;;;;;4991776;28;20521;-65
2021/05/24 03:14:47;;;;;;;8.60;7.90;;;;;;;;;;4991668;28;20490;-65
2021/05/24 03:17:13;;;;;;;7.63;7.03;;;;;;;;;;4987271;28;20516;-64
2021/05/24 03:19:40;;;;;;;8.73;7.87;;;;;;;;;;4992568;28;20450;-64
2021/05/24 03:22:07;;;;;;;8.20;7.40;;;;;;;;;;4991646;28;20470;-63
2021/05/24 03:24:34;;;;;;;7.90;7.20;;;;;;;;;;4992640;28;20450;-64
2021/05/24 03:27:01;;;;;;;7.53;7.00;;;;;;;;;;4982082;28;20463;-65
2021/05/24 03:29:27;;;;;;;7.90;7.30;;;;;;;;;;4973530;28;20452;-65
2021/05/24 03:31:54;;;;;;;8.50;7.80;;;;;;;;;;4983224;28;20521;-65
2021/05/24 03:34:20;;;;;;;8.50;7.80;;;;;;;;;;4992741;28;20527;-63
2021/05/24 03:36:47;;;;;;;7.50;6.87;;;;;;;;;;4991285;28;20552;-63
2021/05/24 03:39:15;;;;;;;7.50;7.00;;;;;;;;;;4992039;28;20446;-64
2021/05/24 03:41:41;;;;;;;7.90;7.30;;;;;;;;;;4990950;28;20828;-64
2021/05/24 03:44:08;;;;;;;8.10;7.50;;;;;;;;;;4992211;28;20504;-65
2021/05/24 03:46:35;;;;;;;7.43;6.90;;;;;;;;;;4989794;28;20482;-65
2021/05/24 03:49:02;;;;;;;8.10;7.50;;;;;;;;;;4992351;28;20965;-66
2021/05/24 03:51:28;;;;;;;8.10;7.50;;;;;;;;;;4991070;28;20489;-65
2021/05/24 03:53:56;;;;;;;8.40;7.10;;;;;;;;;;4992481;28;20482;-64
2021/05/24 03:56:23;;;;;;;7.87;7.27;;;;;;;;;;4990838;28;20506;-64
2021/05/24 03:58:50;;;;;;;7.57;7.07;;;;;;;;;;4992317;28;20477;-64
2021/05/24 04:01:17;;;;;;;8.57;7.67;;;;;;;;;;4988825;28;20470;-64
2021/05/24 04:03:44;;;;;;;7.97;7.47;;;;;;;;;;4992413;28;20798;-64
2021/05/24 04:06:14;;;;;;;8.50;7.80;;;;;;;;;;4989935;28;21031;-64
2021/05/24 04:08:42;;;;;;;7.97;7.27;;;;;;;;;;4992276;28;20816;-65
2021/05/24 04:11:10;;;;;;;8.97;8.17;;;;;;;;;;4991215;28;20470;-64
2021/05/24 04:13:37;;;;;;;8.07;7.47;;;;;;;;;;4992293;28;20486;-70
2021/05/24 04:16:04;;;;;;;8.13;7.53;;;;;;;;;;4989176;28;20532;-65
2021/05/24 04:18:33;;;;;;;8.30;7.60;;;;;;;;;;4991292;28;20557;-64
2021/05/24 04:21:01;;;;;;;7.77;7.27;;;;;;;;;;4992595;28;20521;-66
2021/05/24 04:23:28;;;;;;;7.87;7.37;;;;;;;;;;4994266;28;20470;-65
2021/05/24 04:25:55;;;;;;;7.67;7.07;;;;;;;;;;4996036;28;20513;-65
2021/05/24 04:28:21;;;;;;;7.67;7.17;;;;;;;;;;4995361;28;20465;-65
2021/05/24 04:30:49;;;;;;;7.47;6.97;;;;;;;;;;4995567;28;20964;-64
2021/05/24 04:33:16;;;;;;;7.73;7.20;;;;;;;;;;4996006;28;20541;-65
2021/05/24 04:35:42;;;;;;;7.63;6.93;;;;;;;;;;4995307;28;20474;-66
2021/05/24 04:38:09;;;;;;;7.23;6.63;;;;;;;;;;4992726;28;20956;-65
2021/05/24 04:40:35;;;;;;;6.60;6.10;;;;;;;;;;4996074;28;20446;-65
2021/05/24 04:43:02;;;;;;;7.00;6.40;;;;;;;;;;4994631;28;20478;-68
2021/05/24 04:45:29;;;;;;;7.23;6.63;;;;;;;;;;4995924;28;20890;-66
2021/05/24 04:47:56;;;;;;;6.80;6.27;;;;;;;;;;4990490;28;20477;-66
2021/05/24 04:50:23;;;;;;;6.57;6.10;;;;;;;;;;4988155;28;20553;-65
2021/05/24 04:52:49;;;;;;;6.63;6.10;;;;;;;;;;4995512;28;20480;-67
2021/05/24 04:55:18;;;;;;;6.07;5.60;;;;;;;;;;4993946;28;20862;-64
2021/05/24 04:57:45;;;;;;;7.00;6.50;;;;;;;;;;4992992;28;20556;-65
2021/05/24 05:00:13;;;;;;;6.80;6.30;;;;;;;;;;4994813;28;20470;-64
2021/05/24 05:02:40;;;;;;;7.03;6.30;;;;;;;;;;4995162;28;20458;-65
2021/05/24 05:05:08;;;;;;;6.60;6.10;;;;;;;;;;4993989;28;20514;-65
2021/05/24 05:07:35;;;;;;;6.40;5.53;;;;;;;;;;4994159;28;21092;-64
2021/05/24 05:10:02;;;;;;;5.67;5.27;;;;;;;;;;4993915;28;20484;-65
2021/05/24 05:12:29;;;;;;;5.83;5.43;;;;;;;;;;4995233;28;20465;-65
2021/05/24 05:14:55;;;;;;;5.50;5.10;;;;;;;;;;4993444;28;20497;-64
2021/05/24 05:17:22;;;;;;;5.83;5.40;;;;;;;;;;4992946;28;20474;-63
2021/05/24 05:19:49;;;;;;;5.87;5.17;;;;;;;;;;4994215;28;20474;-64
2021/05/24 05:22:16;;;;;;;5.80;4.97;;;;;;;;;;4993940;28;20462;-64
2021/05/24 05:24:43;;;;;;;5.73;4.77;;;;;;;;;;4976892;28;20452;-64
2021/05/24 05:27:10;;;;;;;5.60;4.20;;;;;;;;;;4976656;28;20866;-64
2021/05/24 05:29:36;;;;;;;5.00;4.50;;;;;;;;;;4994466;28;20489;-64
2021/05/24 05:32:03;;;;;;;4.67;4.30;;;;;;;;;;4993122;28;20453;-63
2021/05/24 05:34:29;;;;;;;4.97;4.47;;;;;;;;;;4992304;28;20553;-63
2021/05/24 05:36:56;;;;;;;4.80;4.27;;;;;;;;;;4993951;28;20512;-66
2021/05/24 05:39:23;;;;;;;4.87;4.40;;;;;;;;;;4994430;28;20485;-64
2021/05/24 05:41:50;;;;;;;4.07;3.80;;;;;;;;;;4994721;28;20537;-64
2021/05/24 05:44:17;;;;;;;6.53;4.40;;;;;;;;;;4993453;28;20562;-63
2021/05/24 05:46:43;;;;;;;4.43;4.13;;;;;;;;;;4994219;28;20470;-64
2021/05/24 05:49:10;;;;;;;4.23;3.90;;;;;;;;;;4993790;28;21221;-63
2021/05/24 05:51:37;;;;;;;4.23;3.90;;;;;;;;;;4992302;28;20487;-64
2021/05/24 05:54:04;;;;;;;3.90;3.60;;;;;;;;;;4989572;28;20491;-64
2021/05/24 05:56:31;;;;;;;4.13;3.80;;;;;;;;;;4993710;28;20469;-63
2021/05/24 05:58:58;;;;;;;3.77;3.40;;;;;;;;;;4993071;28;21043;-64
2021/05/24 06:01:24;;;;;;;3.70;3.10;;;;;;;;;;4993243;28;20478;-64
2021/05/24 06:03:51;;;;;;;5.17;3.70;;;;;;;;;;4994527;28;20446;-64
2021/05/24 06:06:18;;;;;;;3.73;3.43;;;;;;;;;;4992990;28;20494;-66
2021/05/24 06:08:45;;;;;;;3.70;3.40;;;;;;;;;;4993994;28;20457;-66
2021/05/24 06:11:12;;;;;;;3.80;3.40;;;;;;;;;;4993047;28;20492;-66
2021/05/24 06:13:39;;;;;;;3.30;3.00;;;;;;;;;;4993897;28;20969;-68
2021/05/24 06:16:06;;;;;;;3.23;2.83;;;;;;;;;;4991598;28;21031;-68
2021/05/24 06:18:33;;;;;;;4.13;3.40;;;;;;;;;;4993708;28;20458;-68
2021/05/24 06:21:00;;;;;;;3.30;2.97;;;;;;;;;;4993366;28;20955;-68
2021/05/24 06:23:27;;;;;;;4.30;3.30;;;;;;;;;;4991662;28;20471;-69
2021/05/24 06:25:53;;;;;;;3.33;3.03;;;;;;;;;;4992590;28;20518;-69
2021/05/24 06:28:20;;;;;;;9.37;2.73;;;;;;;;;;4991297;28;20840;-70
2021/05/24 06:30:47;;;;;;;7.87;2.60;;;;;;;;;;4994254;28;20466;-70
2021/05/24 06:33:14;;;;;;;6.03;1.90;;;;;;;;;;4993975;28;20949;-71
2021/05/24 06:35:40;;;;;;;3.27;1.90;;;;;;;;;;4993631;28;20498;-69
2021/05/24 06:38:07;;;;;;;3.33;1.90;;;;;;;;;;4991324;28;20824;-71
2021/05/24 06:40:34;;;;;;;10.00;1.80;;;;;;;;;;4983697;28;20455;-71
2021/05/24 06:43:00;;;;;;;2.57;1.60;;;;;;;;;;4982252;28;20455;-71
2021/05/24 06:45:27;;;;;;;3.17;1.80;;;;;;;;;;4994186;28;20521;-70
2021/05/24 06:47:55;;;;;;;3.60;1.80;;;;;;;;;;4994448;28;20554;-71
2021/05/24 06:50:21;;;;;;;4.90;1.77;;;;;;;;;;4994151;28;20450;-71
2021/05/24 06:52:48;;;;;;;2.23;1.40;;;;;;;;;;4994123;28;20492;-71
2021/05/24 06:55:15;;;;;;;2.17;1.30;;;;;;;;;;4994862;28;20490;-71
2021/05/24 06:57:42;;;;;;;1.63;1.20;;;;;;;;;;4995102;28;20451;-71
2021/05/24 07:00:11;;;;;;;2.40;1.27;;;;;;;;;;4993866;28;20950;-71
2021/05/24 07:02:38;;;;;;;2.63;1.40;;;;;;;;;;4992897;28;20478;-71
2021/05/24 07:05:06;;;;;;;2.70;1.10;;;;;;;;;;4993946;28;20478;-71
2021/05/24 07:07:33;;;;;;;3.20;1.30;;;;;;;;;;4999387;28;20832;-71
2021/05/24 07:10:00;;;;;;;3.03;1.10;;;;;;;;;;5012899;28;20453;-69
2021/05/24 07:12:26;;;;;;;1.53;1.10;;;;;;;;;;4995636;28;20454;-69
2021/05/24 07:14:54;;;;;;;2.07;1.33;;;;;;;;;;4984823;28;20498;-71
2021/05/24 07:17:21;;;;;;;2.13;1.20;;;;;;;;;;4993909;28;21101;-71
2021/05/24 07:19:47;;;;;;;2.70;1.40;;;;;;;;;;4993616;28;20454;-71
2021/05/24 07:22:15;;;;;;;1.67;1.20;;;;;;;;;;4993826;28;20459;-71
2021/05/24 07:24:42;;;;;;;2.50;1.10;;;;;;;;;;4993810;28;20525;-71
2021/05/24 07:27:08;;;;;;;2.00;1.10;;;;;;;;;;4993913;28;20446;-71
2021/05/24 07:29:35;;;;;;;3.37;1.20;;;;;;;;;;5003007;28;20824;-69
2021/05/24 07:32:02;;;;;;;4.27;1.47;;;;;;;;;;4993073;28;20485;-69
2021/05/24 07:34:28;;;;;;;3.27;1.40;;;;;;;;;;4988017;28;20577;-71
2021/05/24 07:36:55;;;;;;;3.23;1.13;;;;;;;;;;4991803;28;20445;-71
2021/05/24 07:39:22;;;;;;;1.60;1.33;;;;;;;;;;5007138;28;20457;-71
2021/05/24 07:41:49;;;;;;;3.57;1.63;;;;;;;;;;4998534;28;20895;-70
2021/05/24 07:44:16;;;;;;;2.70;1.17;;;;;;;;;;5004435;28;20453;-73
2021/05/24 07:46:43;;;;;;;3.27;1.70;;;;;;;;;;4994119;28;20529;-71
2021/05/24 07:49:09;;;;;;;2.60;1.00;;;;;;;;;;4993248;28;20828;-71
2021/05/24 07:51:36;;;;;;;1.97;1.10;;;;;;;;;;4992742;28;20541;-71
2021/05/24 07:54:02;;;;;;;3.63;1.30;;;;;;;;;;4993456;28;20483;-71
2021/05/24 07:56:30;;;;;;;1.57;1.00;;;;;;;;;;4992545;28;21182;-71
2021/05/24 07:58:57;;;;;;;1.50;1.00;;;;;;;;;;4993768;28;20458;-71
2021/05/24 08:01:23;;;;;;;1.77;1.13;;;;;;;;;;4991703;28;20455;-71
2021/05/24 08:03:50;;;;;;;1.23;0.90;;;;;;;;;;4993327;28;20461;-71
2021/05/24 08:06:16;;;;;;;3.00;1.00;;;;;;;;;;4993387;28;20485;-71
2021/05/24 08:08:43;;;;;;;1.40;1.00;;;;;;;;;;4993624;28;20450;-71
2021/05/24 08:11:11;;;;;;;2.37;1.37;;;;;;;;;;4993425;28;20465;-71
2021/05/24 08:13:39;;;;;;;2.03;1.10;;;;;;;;;;4993600;28;20942;-71
2021/05/24 08:16:05;;;;;;;2.33;1.40;;;;;;;;;;4992644;28;20841;-71
2021/05/24 08:18:32;;;;;;;3.70;1.10;;;;;;;;;;4993029;28;20458;-71
2021/05/24 08:20:59;;;;;;;1.90;1.00;;;;;;;;;;4993204;28;20454;-70
2021/05/24 08:23:26;;;;;;;1.80;0.93;;;;;;;;;;4992829;28;20941;-71
2021/05/24 08:25:54;;;;;;;1.37;1.00;;;;;;;;;;4997903;28;20470;-71
2021/05/24 08:28:21;;;;;;;1.87;1.03;;;;;;;;;;4992838;28;20549;-71
2021/05/24 08:30:48;;;;;;;2.77;1.40;;;;;;;;;;4993243;28;20537;-71
2021/05/24 08:33:15;;;;;;;2.60;1.70;;;;;;;;;;4992958;28;20465;-71
2021/05/24 08:35:42;;;;;;;3.13;1.60;;;;;;;;;;4992710;28;20490;-71
2021/05/24 08:38:08;;;;;;;2.50;1.40;;;;;;;;;;4984421;28;20466;-71
2021/05/24 08:40:35;;;;;;;2.20;2.00;;;;;;;;;;4988426;28;20950;-69
2021/05/24 08:43:02;;;;;;;5.90;2.10;;;;;;;;;;4992929;28;20977;-68
2021/05/24 08:45:30;;;;;;;4.00;1.23;;;;;;;;;;4992879;28;20473;-68
2021/05/24 08:47:57;;;;;;;2.57;1.30;;;;;;;;;;4992550;28;20450;-64
2021/05/24 08:50:24;;;;;;;4.43;1.37;;;;;;;;;;4992688;28;20451;-63
2021/05/24 08:52:51;;;;;;;2.27;1.57;;;;;;;;;;4993069;28;20457;-64
2021/05/24 08:55:17;;;;;;;3.50;1.50;;;;;;;;;;4992484;28;20540;-64
2021/05/24 08:57:44;;;;;;;2.43;1.20;;;;;;;;;;4988486;28;20948;-64
2021/05/24 09:00:13;;;;;;;4.20;1.40;;;;;;;;;;4992801;28;20939;-64
2021/05/24 09:02:39;;;;;;;2.60;1.03;;;;;;;;;;4992455;28;20454;-64
2021/05/24 09:05:08;;;;;;;1.97;1.13;;;;;;;;;;4980671;28;20482;-64
2021/05/24 09:07:47;;;;;;;1.57;1.10;;;;;;;;;;4993528;28;20597;-64
2021/05/24 09:10:14;;;;;;;2.33;1.20;;;;;;;;;;4994880;28;20442;-64
2021/05/24 09:12:40;;;;;;;1.53;1.10;;;;;;;;;;4996410;28;20501;-64
2021/05/24 09:15:10;;;;;;;3.30;1.20;;;;;;;;;;4995470;28;20494;-64
2021/05/24 09:17:44;;;;;;;5.00;1.13;;;;;;;;;;4995852;28;20458;-64
2021/05/24 09:20:26;;;;;;;2.47;1.37;;;;;;;;;;4994638;28;20542;-64
2021/05/24 09:23:05;;;;;;;1.77;0.73;;;;;;;;;;4992294;28;20485;-64
2021/05/24 09:25:45;;;;;;;1.30;0.90;;;;;;;;;;4993972;28;20524;-64
2021/05/24 09:28:24;;;;;;;2.03;1.00;;;;;;;;;;4976377;28;20451;-64
2021/05/24 09:30:53;;;;;;;1.40;0.80;;;;;;;;;;4994291;28;20469;-64
2021/05/24 09:33:20;;;;;;;1.73;0.90;;;;;;;;;;4995988;28;20486;-64
2021/05/24 09:35:50;;;;;;;3.83;1.00;;;;;;;;;;4995849;28;20482;-64
2021/05/24 09:38:16;;;;;;;1.93;0.83;;;;;;;;;;5015324;28;20454;-64
2021/05/24 09:40:44;;;;;;;3.03;0.80;;;;;;;;;;5003411;28;20458;-64
2021/05/24 09:43:11;;;;;;;1.47;0.80;;;;;;;;;;4994771;28;20797;-64
2021/05/24 09:45:40;;;;;;;1.43;0.90;;;;;;;;;;4994431;28;20481;-64
2021/05/24 09:48:07;;;;;;;1.80;1.10;;;;;;;;;;4995225;28;20537;-64
2021/05/24 09:50:34;;;;;;;2.10;1.00;;;;;;;;;;4995764;28;20451;-64
2021/05/24 09:53:01;;;;;;;1.50;0.87;;;;;;;;;;5014894;28;20960;-64
2021/05/24 09:55:29;;;;;;;2.27;1.10;;;;;;;;;;4997979;28;20486;-64
2021/05/24 09:57:56;;;;;;;2.20;1.03;;;;;;;;;;4994696;28;20509;-64
2021/05/24 10:00:25;;;;;;;2.00;1.10;;;;;;;;;;4994319;28;20454;-64
2021/05/24 10:02:53;;;;;;;1.20;0.87;;;;;;;;;;4995226;28;20454;-64
2021/05/24 10:05:19;;;;;;;1.90;0.93;;;;;;;;;;4995061;28;20570;-64
2021/05/24 10:07:46;;;;;;;1.70;1.00;;;;;;;;;;4995092;28;20462;-65
2021/05/24 10:10:14;;;;;;;1.70;0.80;;;;;;;;;;4995042;28;20459;-64
2021/05/24 10:12:41;;;;;;;1.80;0.83;;;;;;;;;;4995062;28;20486;-64
2021/05/24 10:15:09;;;;;;;1.63;0.80;;;;;;;;;;4994370;28;20485;-64
2021/05/24 10:17:42;;;;;;;1.57;0.80;;;;;;;;;;4993996;28;20545;-63
2021/05/24 10:20:10;;;;;;;3.20;1.10;;;;;;;;;;4992392;28;20637;-64
2021/05/24 10:22:36;;;;;;;2.40;1.00;;;;;;;;;;4994170;28;20937;-64
2021/05/24 10:25:03;;;;;;;2.43;1.17;;;;;;;;;;4994932;28;20597;-64
2021/05/24 10:27:31;;;;;;;2.60;0.83;;;;;;;;;;4983636;28;20455;-65
2021/05/24 10:29:57;;;;;;;2.27;1.00;;;;;;;;;;4993371;28;20972;-65
2021/05/24 10:32:24;;;;;;;1.30;0.90;;;;;;;;;;4993454;28;20819;-65
2021/05/24 10:34:53;;;;;;;2.10;0.80;;;;;;;;;;5004427;28;20486;-65
2021/05/24 10:37:20;;;;;;;1.87;0.97;;;;;;;;;;5013590;28;20489;-65
2021/05/24 10:39:54;;;;;;;1.67;1.10;;;;;;;;;;5013628;28;20472;-65
2021/05/24 10:42:35;;;;;;;1.67;1.17;;;;;;;;;;5013400;28;20469;-65
2021/05/24 10:45:14;;;;;;;4.10;1.10;;;;;;;;;;5013548;28;20465;-65
2021/05/24 10:47:51;;;;;;;2.20;1.10;;;;;;;;;;5012753;28;20868;-64
2021/05/24 10:50:19;;;;;;;1.30;1.17;;;;;;;;;;5013446;28;20463;-64
2021/05/24 10:52:55;;;;;;;2.00;1.40;;;;;;;;;;5012940;28;20945;-64
2021/05/24 10:55:31;;;;;;;1.83;0.90;;;;;;;;;;5012643;28;20491;-64
2021/05/24 10:58:01;;;;;;;3.07;1.27;;;;;;;;;;5012617;28;20434;-64
2021/05/24 11:00:29;;;;;;;1.40;0.90;;;;;;;;;;5013018;28;20434;-64
2021/05/24 11:02:57;;;;;;;2.37;1.10;;;;;;;;;;5011821;28;20460;-65
2021/05/24 11:05:29;;;;;;;1.83;0.90;;;;;;;;;;5012501;28;20485;-64
2021/05/24 11:07:56;;;;;;;1.97;0.90;;;;;;;;;;5013086;28;20442;-65
2021/05/24 11:10:24;;;;;;;1.20;0.80;;;;;;;;;;5012597;28;20449;-65
2021/05/24 11:12:52;;;;;;;2.10;0.97;;;;;;;;;;5013145;28;20456;-65
2021/05/24 11:15:19;;;;;;;2.33;0.97;;;;;;;;;;5012514;28;20489;-65
2021/05/24 11:18:05;;;;;;;2.00;1.30;;;;;;;;;;5012165;28;20485;-65
2021/05/24 11:20:33;;;;;;;2.90;1.07;;;;;;;;;;5012325;28;20449;-64
2021/05/24 11:23:13;;;;;;;1.63;1.00;;;;;;;;;;5012342;28;20449;-64
2021/05/24 11:25:56;;;;;;;1.43;0.80;;;;;;;;;;5012782;28;20548;-67
2021/05/24 11:28:33;;;;;;;1.03;0.77;;;;;;;;;;5012606;28;20457;-64
2021/05/24 11:31:13;;;;;;;1.70;1.23;;;;;;;;;;5006078;28;20442;-65
2021/05/24 11:33:41;;;;;;;1.80;1.10;;;;;;;;;;4993838;28;20450;-65
2021/05/24 11:36:09;;;;;;;6.60;1.30;;;;;;;;;;4993248;28;20486;-65
2021/05/24 11:38:36;;;;;;;2.33;1.00;;;;;;;;;;4993349;28;20496;-64
2021/05/24 11:41:13;;;;;;;1.40;1.00;;;;;;;;;;4992932;28;20957;-65
2021/05/24 11:43:41;;;;;;;1.50;1.10;;;;;;;;;;4993038;28;20438;-64
2021/05/24 11:46:08;;;;;;;1.60;1.00;;;;;;;;;;4992884;28;20528;-65
2021/05/24 11:48:37;;;;;;;2.93;1.17;;;;;;;;;;4993184;28;20461;-65
2021/05/24 11:51:04;;;;;;;2.50;1.10;;;;;;;;;;4993085;28;20497;-64
2021/05/24 11:53:33;;;;;;;3.40;0.90;;;;;;;;;;4993188;28;20458;-65
2021/05/24 11:56:09;;;;;;;1.90;1.17;;;;;;;;;;4992568;28;20500;-65
2021/05/24 11:58:51;;;;;;;2.10;1.20;;;;;;;;;;4992840;28;20801;-65
2021/05/24 12:01:17;;;;;;;2.10;1.10;;;;;;;;;;4973098;28;20451;-64
2021/05/24 12:03:47;;;;;;;1.87;0.90;;;;;;;;;;4973385;28;20451;-64
2021/05/24 12:06:13;;;;;;;1.50;1.00;;;;;;;;;;5012729;23;20504;-65
2021/05/24 12:08:42;;;;;;;2.77;0.87;;;;;;;;;;5013280;28;20449;-65
2021/05/24 12:11:09;;;;;;;2.70;0.93;;;;;;;;;;5000369;28;20446;-66
2021/05/24 12:13:50;;;;;;;3.50;0.93;;;;;;;;;;4992384;28;20458;-66
2021/05/24 12:16:17;;;;;;;1.70;1.10;;;;;;;;;;4991668;28;20494;-66
2021/05/24 12:18:50;;;;;;;1.50;1.30;;;;;;;;;;4993288;28;20975;-66
2021/05/24 12:21:30;;;;;;;2.20;1.20;;;;;;;;;;4976639;28;20448;-65
2021/05/24 12:23:59;;;;;;;5.43;1.03;;;;;;;;;;4972867;28;20435;-65
2021/05/24 12:26:26;;;;;;;2.70;1.37;;;;;;;;;;4973044;28;20550;-66
2021/05/24 12:28:52;;;;;;;1.90;0.80;;;;;;;;;;4972842;28;20452;-65
2021/05/24 12:31:19;;;;;;;1.40;0.90;;;;;;;;;;4972720;28;20461;-66
2021/05/24 12:33:47;;;;;;;1.73;0.93;;;;;;;;;;4974311;28;20875;-67
2021/05/24 12:36:17;;;;;;;2.13;1.00;;;;;;;;;;4972517;28;20495;-67
2021/05/24 12:38:45;;;;;;;1.30;1.10;;;;;;;;;;4972809;28;20498;-65
2021/05/24 12:41:15;;;;;;;1.50;0.97;;;;;;;;;;4973030;28;20821;-65
2021/05/24 12:43:52;;;;;;;3.20;1.20;;;;;;;;;;4974961;28;20447;-65
2021/05/24 12:46:19;;;;;;;1.80;0.70;;;;;;;;;;4975508;28;20473;-66
2021/05/24 12:48:48;;;;;;;1.63;0.90;;;;;;;;;;4984947;28;20458;-67
2021/05/24 12:51:15;;;;;;;2.40;1.30;;;;;;;;;;4995553;28;20946;-67
2021/05/24 12:53:42;;;;;;;1.40;0.80;;;;;;;;;;4995698;28;20454;-67
2021/05/24 12:56:09;;;;;;;3.10;1.27;;;;;;;;;;4993558;28;20486;-67
2021/05/24 12:58:38;;;;;;;2.23;1.17;;;;;;;;;;4995094;28;20541;-67
2021/05/24 13:01:04;;;;;;;2.57;1.13;;;;;;;;;;4995154;28;20456;-67
2021/05/24 13:03:41;;;;;;;2.03;1.30;;;;;;;;;;4995264;28;20454;-66
2021/05/24 13:06:08;;;;;;;2.93;2.07;;;;;;;;;;4994872;28;20485;-67
2021/05/24 13:08:35;;;;;;;4.03;1.10;;;;;;;;;;4994908;28;20447;-67
2021/05/24 13:11:03;;;;;;;1.47;0.70;;;;;;;;;;4994915;28;21024;-67
2021/05/24 13:13:30;;;;;;;2.20;0.87;;;;;;;;;;4995128;28;20823;-67
2021/05/24 13:16:11;;;;;;;1.77;0.90;;;;;;;;;;4994733;28;21077;-67
2021/05/24 13:18:49;;;;;;;2.83;1.40;;;;;;;;;;4995197;28;20914;-66
2021/05/24 13:21:36;;;;;;;2.00;1.10;;;;;;;;;;4995180;28;20442;-66
2021/05/24 13:24:13;;;;;;;3.70;1.73;;;;;;;;;;4982546;28;20454;-67
2021/05/24 13:27:05;;;;;;;4.40;1.20;;;;;;;;;;4975438;28;20467;-67
2021/05/24 13:29:43;;;;;;;2.10;1.23;;;;;;;;;;4975744;28;20527;-66
2021/05/24 13:32:23;;;;;;;2.50;1.30;;;;;;;;;;4975224;28;20907;-67
2021/05/24 13:34:49;;;;;;;2.07;1.30;;;;;;;;;;4975486;28;20482;-68
2021/05/24 13:37:16;;;;;;;2.20;1.10;;;;;;;;;;4975156;28;21002;-68
2021/05/24 13:39:43;;;;;;;2.90;1.27;;;;;;;;;;4975330;28;20947;-68
2021/05/24 13:42:10;;;;;;;2.17;1.17;;;;;;;;;;4975140;28;20949;-68
2021/05/24 13:44:37;;;;;;;2.20;1.40;;;;;;;;;;4974881;28;20454;-68
2021/05/24 13:47:04;;;;;;;2.30;1.10;;;;;;;;;;4975092;28;20494;-67
2021/05/24 13:49:33;;;;;;;2.63;1.20;;;;;;;;;;4975555;28;20474;-68
2021/05/24 13:52:00;;;;;;;2.20;1.00;;;;;;;;;;4975174;28;20514;-69
2021/05/24 13:54:27;;;;;;;2.40;1.57;;;;;;;;;;4989615;28;20490;-68
2021/05/24 13:56:54;;;;;;;2.03;1.27;;;;;;;;;;4993973;28;20470;-68
2021/05/24 13:59:20;;;;;;;2.30;1.20;;;;;;;;;;4994572;28;20508;-68
2021/05/24 14:01:47;;;;;;;1.93;1.10;;;;;;;;;;4994315;28;20867;-68
2021/05/24 14:04:16;;;;;;;1.50;1.10;;;;;;;;;;4994603;28;20458;-68
2021/05/24 14:06:46;;;;;;;1.50;1.23;;;;;;;;;;4992712;28;20532;-67
2021/05/24 14:09:13;;;;;;;2.50;1.53;;;;;;;;;;4994371;28;20449;-67
2021/05/24 14:11:39;;;;;;;1.63;1.40;;;;;;;;;;4993770;28;20482;-68
2021/05/24 14:14:06;;;;;;;1.73;1.30;;;;;;;;;;4993297;28;20463;-68
2021/05/24 14:16:33;;;;;;;3.70;1.97;;;;;;;;;;4993264;28;20494;-67
2021/05/24 14:18:59;;;;;;;3.13;1.43;;;;;;;;;;4992280;28;20542;-68
2021/05/24 14:21:26;;;;;;;2.53;1.50;;;;;;;;;;4993151;28;20816;-68
2021/05/24 14:23:55;;;;;;;2.03;1.43;;;;;;;;;;4993714;28;20461;-69
2021/05/24 14:26:21;;;;;;;2.13;1.40;;;;;;;;;;4992766;28;20482;-68
2021/05/24 14:28:48;;;;;;;1.93;1.40;;;;;;;;;;4992377;28;20545;-68
2021/05/24 14:31:15;;;;;;;1.30;1.20;;;;;;;;;;4992910;28;20480;-68
2021/05/24 14:33:43;;;;;;;1.47;1.00;;;;;;;;;;4993451;28;20954;-67
2021/05/24 14:36:10;;;;;;;1.73;1.10;;;;;;;;;;4989676;28;21075;-68
2021/05/24 14:38:37;;;;;;;3.80;1.80;;;;;;;;;;4991890;28;20466;-67
2021/05/24 14:41:06;;;;;;;1.67;1.30;;;;;;;;;;4993225;28;20459;-67
2021/05/24 14:43:32;;;;;;;1.90;1.30;;;;;;;;;;4995301;28;20465;-67